sensor_id;sensor_type;location;lat;lon;timestamp;P1;durP1;ratioP1;P2;durP2;ratioP2
10299;SDS011;5195;48.562;9.192;2024-01-30T00:00:21;7.73;;;7.13;;
10299;SDS011;5195;48.562;9.192;2024-01-30T00:02:58;8.93;;;8.17;;
10299;SDS011;5195;48.562;9.192;2024-01-30T00:05:33;8.97;;;7.90;;
10299;SDS011;5195;48.562;9.192;2024-01-30T00:08:11;9.07;;;7.57;;
10299;SDS011;5195;48.562;9.192;2024-01-30T00:10:46;10.13;;;9.23;;
10299;SDS011;5195;48.562;9.192;2024-01-30T00:13:22;9.63;;;8.82;;
10299;SDS011;5195;48.562;9.192;2024-01-30T00:15:58;8.40;;;7.70;;
10299;SDS011;5195;48.562;9.192;2024-01-30T00:18:33;10.32;;;9.27;;
10299;SDS011;5195;48.562;9.192;2024-01-30T00:21:09;9.85;;;8.85;;
10299;SDS011;5195;48.562;9.192;2024-01-30T00:23:46;10.52;;;9.27;;
10299;SDS011;5195;48.562;9.192;2024-01-30T00:26:21;8.40;;;7.70;;
10299;SDS011;5195;48.562;9.192;2024-01-30T00:28:50;8.83;;;8.03;;
10299;SDS011;5195;48.562;9.192;2024-01-30T00:31:16;9.77;;;8.93;;
10299;SDS011;5195;48.562;9.192;2024-01-30T00:33:42;10.33;;;9.43;;
10299;SDS011;5195;48.562;9.192;2024-01-30T00:36:08;9.83;;;8.90;;
10299;SDS011;5195;48.562;9.192;2024-01-30T00:38:33;10.47;;;9.57;;
10299;SDS011;5195;48.562;9.192;2024-01-30T00:41:00;9.57;;;8.65;;
10299;SDS011;5195;48.562;9.192;2024-01-30T00:43:25;9.87;;;8.37;;
10299;SDS011;5195;48.562;9.192;2024-01-30T00:45:51;10.73;;;9.73;;
10299;SDS011;5195;48.562;9.192;2024-01-30T00:48:16;10.07;;;9.07;;
10299;SDS011;5195;48.562;9.192;2024-01-30T00:50:42;8.65;;;7.82;;
10299;SDS011;5195;48.562;9.192;2024-01-30T00:53:07;8.67;;;7.77;;
10299;SDS011;5195;48.562;9.192;2024-01-30T00:55:33;9.15;;;8.45;;
10299;SDS011;5195;48.562;9.192;2024-01-30T00:58:00;9.27;;;8.50;;
10299;SDS011;5195;48.562;9.192;2024-01-30T01:00:26;8.50;;;7.80;;
10299;SDS011;5195;48.562;9.192;2024-01-30T01:02:56;8.90;;;8.10;;
10299;SDS011;5195;48.562;9.192;2024-01-30T01:05:21;9.10;;;8.17;;
10299;SDS011;5195;48.562;9.192;2024-01-30T01:07:48;10.37;;;9.47;;
10299;SDS011;5195;48.562;9.192;2024-01-30T01:10:13;9.03;;;8.13;;
10299;SDS011;5195;48.562;9.192;2024-01-30T01:12:39;9.55;;;8.25;;
10299;SDS011;5195;48.562;9.192;2024-01-30T01:15:05;9.10;;;8.27;;
10299;SDS011;5195;48.562;9.192;2024-01-30T01:17:30;11.23;;;8.17;;
10299;SDS011;5195;48.562;9.192;2024-01-30T01:19:59;11.07;;;10.07;;
10299;SDS011;5195;48.562;9.192;2024-01-30T01:22:25;10.93;;;10.00;;
10299;SDS011;5195;48.562;9.192;2024-01-30T01:24:51;10.57;;;9.67;;
10299;SDS011;5195;48.562;9.192;2024-01-30T01:27:16;9.83;;;9.03;;
10299;SDS011;5195;48.562;9.192;2024-01-30T01:29:42;10.05;;;9.15;;
10299;SDS011;5195;48.562;9.192;2024-01-30T01:32:07;9.23;;;8.38;;
10299;SDS011;5195;48.562;9.192;2024-01-30T01:34:33;8.82;;;8.02;;
10299;SDS011;5195;48.562;9.192;2024-01-30T01:36:59;10.73;;;9.90;;
10299;SDS011;5195;48.562;9.192;2024-01-30T01:39:26;9.67;;;8.67;;
10299;SDS011;5195;48.562;9.192;2024-01-30T01:41:53;8.52;;;7.72;;
10299;SDS011;5195;48.562;9.192;2024-01-30T01:44:19;9.50;;;8.17;;
10299;SDS011;5195;48.562;9.192;2024-01-30T01:46:47;11.17;;;10.17;;
10299;SDS011;5195;48.562;9.192;2024-01-30T01:49:12;10.63;;;9.63;;
10299;SDS011;5195;48.562;9.192;2024-01-30T01:51:38;10.63;;;9.83;;
10299;SDS011;5195;48.562;9.192;2024-01-30T01:54:04;9.65;;;8.68;;
10299;SDS011;5195;48.562;9.192;2024-01-30T01:56:29;10.90;;;10.00;;
10299;SDS011;5195;48.562;9.192;2024-01-30T01:58:55;11.53;;;10.33;;
10299;SDS011;5195;48.562;9.192;2024-01-30T02:01:20;10.10;;;9.10;;
10299;SDS011;5195;48.562;9.192;2024-01-30T02:03:46;10.20;;;9.37;;
10299;SDS011;5195;48.562;9.192;2024-01-30T02:06:16;10.67;;;9.80;;
10299;SDS011;5195;48.562;9.192;2024-01-30T02:08:42;10.32;;;9.38;;
10299;SDS011;5195;48.562;9.192;2024-01-30T02:11:08;10.27;;;9.40;;
10299;SDS011;5195;48.562;9.192;2024-01-30T02:13:34;9.10;;;8.40;;
10299;SDS011;5195;48.562;9.192;2024-01-30T02:15:59;8.90;;;8.10;;
10299;SDS011;5195;48.562;9.192;2024-01-30T02:18:25;9.83;;;9.03;;
10299;SDS011;5195;48.562;9.192;2024-01-30T02:20:51;10.57;;;9.67;;
10299;SDS011;5195;48.562;9.192;2024-01-30T02:23:17;9.10;;;8.40;;
10299;SDS011;5195;48.562;9.192;2024-01-30T02:25:43;10.50;;;9.60;;
10299;SDS011;5195;48.562;9.192;2024-01-30T02:28:12;10.00;;;9.23;;
10299;SDS011;5195;48.562;9.192;2024-01-30T02:30:44;10.30;;;9.50;;
10299;SDS011;5195;48.562;9.192;2024-01-30T02:33:12;9.20;;;8.40;;
10299;SDS011;5195;48.562;9.192;2024-01-30T02:35:37;10.10;;;9.30;;
10299;SDS011;5195;48.562;9.192;2024-01-30T02:38:03;10.57;;;9.50;;
10299;SDS011;5195;48.562;9.192;2024-01-30T02:40:29;9.00;;;8.10;;
10299;SDS011;5195;48.562;9.192;2024-01-30T02:42:54;8.57;;;7.77;;
10299;SDS011;5195;48.562;9.192;2024-01-30T02:45:23;9.43;;;8.48;;
10299;SDS011;5195;48.562;9.192;2024-01-30T02:47:48;10.20;;;9.30;;
10299;SDS011;5195;48.562;9.192;2024-01-30T02:50:14;10.23;;;9.43;;
10299;SDS011;5195;48.562;9.192;2024-01-30T02:52:40;8.60;;;8.00;;
10299;SDS011;5195;48.562;9.192;2024-01-30T02:55:06;9.37;;;8.67;;
10299;SDS011;5195;48.562;9.192;2024-01-30T02:57:31;8.13;;;7.43;;
10299;SDS011;5195;48.562;9.192;2024-01-30T02:59:58;9.85;;;9.05;;
10299;SDS011;5195;48.562;9.192;2024-01-30T03:02:25;9.13;;;8.43;;
10299;SDS011;5195;48.562;9.192;2024-01-30T03:04:51;10.52;;;9.65;;
10299;SDS011;5195;48.562;9.192;2024-01-30T03:07:17;10.45;;;9.55;;
10299;SDS011;5195;48.562;9.192;2024-01-30T03:09:42;11.03;;;10.17;;
10299;SDS011;5195;48.562;9.192;2024-01-30T03:12:09;9.60;;;8.75;;
10299;SDS011;5195;48.562;9.192;2024-01-30T03:14:34;11.53;;;10.53;;
10299;SDS011;5195;48.562;9.192;2024-01-30T03:17:00;9.52;;;8.73;;
10299;SDS011;5195;48.562;9.192;2024-01-30T03:19:25;10.40;;;9.60;;
10299;SDS011;5195;48.562;9.192;2024-01-30T03:21:53;11.20;;;10.30;;
10299;SDS011;5195;48.562;9.192;2024-01-30T03:24:18;10.37;;;9.47;;
10299;SDS011;5195;48.562;9.192;2024-01-30T03:26:44;8.75;;;8.00;;
10299;SDS011;5195;48.562;9.192;2024-01-30T03:29:10;8.70;;;7.90;;
10299;SDS011;5195;48.562;9.192;2024-01-30T03:31:36;11.00;;;10.07;;
10299;SDS011;5195;48.562;9.192;2024-01-30T03:34:01;9.07;;;8.27;;
10299;SDS011;5195;48.562;9.192;2024-01-30T03:36:27;10.83;;;10.03;;
10299;SDS011;5195;48.562;9.192;2024-01-30T03:38:52;9.77;;;8.88;;
10299;SDS011;5195;48.562;9.192;2024-01-30T03:41:18;10.47;;;9.70;;
10299;SDS011;5195;48.562;9.192;2024-01-30T03:43:45;9.07;;;8.33;;
10299;SDS011;5195;48.562;9.192;2024-01-30T03:46:11;8.83;;;8.03;;
10299;SDS011;5195;48.562;9.192;2024-01-30T03:48:38;8.53;;;7.73;;
10299;SDS011;5195;48.562;9.192;2024-01-30T03:51:04;10.00;;;9.20;;
10299;SDS011;5195;48.562;9.192;2024-01-30T03:53:31;10.47;;;9.67;;
10299;SDS011;5195;48.562;9.192;2024-01-30T03:55:57;9.43;;;8.47;;
10299;SDS011;5195;48.562;9.192;2024-01-30T03:58:22;8.90;;;8.10;;
10299;SDS011;5195;48.562;9.192;2024-01-30T04:00:48;9.73;;;8.97;;
10299;SDS011;5195;48.562;9.192;2024-01-30T04:03:15;9.98;;;9.27;;
10299;SDS011;5195;48.562;9.192;2024-01-30T04:05:41;8.80;;;8.10;;
10299;SDS011;5195;48.562;9.192;2024-01-30T04:08:09;9.27;;;8.50;;
10299;SDS011;5195;48.562;9.192;2024-01-30T04:10:35;8.77;;;7.90;;
10299;SDS011;5195;48.562;9.192;2024-01-30T04:13:01;9.50;;;8.27;;
10299;SDS011;5195;48.562;9.192;2024-01-30T04:15:27;8.10;;;7.32;;
10299;SDS011;5195;48.562;9.192;2024-01-30T04:17:52;10.33;;;9.53;;
10299;SDS011;5195;48.562;9.192;2024-01-30T04:20:18;9.13;;;8.43;;
10299;SDS011;5195;48.562;9.192;2024-01-30T04:22:44;9.40;;;8.00;;
10299;SDS011;5195;48.562;9.192;2024-01-30T04:25:10;8.77;;;7.97;;
10299;SDS011;5195;48.562;9.192;2024-01-30T04:27:35;8.77;;;8.02;;
10299;SDS011;5195;48.562;9.192;2024-01-30T04:30:01;13.32;;;12.15;;
10299;SDS011;5195;48.562;9.192;2024-01-30T04:32:26;17.83;;;16.13;;
10299;SDS011;5195;48.562;9.192;2024-01-30T04:34:53;15.13;;;13.43;;
10299;SDS011;5195;48.562;9.192;2024-01-30T04:37:18;11.60;;;10.50;;
10299;SDS011;5195;48.562;9.192;2024-01-30T04:39:44;8.48;;;7.87;;
10299;SDS011;5195;48.562;9.192;2024-01-30T04:42:10;9.43;;;8.43;;
10299;SDS011;5195;48.562;9.192;2024-01-30T04:44:36;8.13;;;7.43;;
10299;SDS011;5195;48.562;9.192;2024-01-30T04:47:02;9.80;;;9.00;;
10299;SDS011;5195;48.562;9.192;2024-01-30T04:49:28;9.17;;;8.37;;
10299;SDS011;5195;48.562;9.192;2024-01-30T04:51:54;8.40;;;7.60;;
10299;SDS011;5195;48.562;9.192;2024-01-30T04:54:19;8.47;;;7.80;;
10299;SDS011;5195;48.562;9.192;2024-01-30T04:56:46;9.63;;;8.80;;
10299;SDS011;5195;48.562;9.192;2024-01-30T04:59:12;10.38;;;9.55;;
10299;SDS011;5195;48.562;9.192;2024-01-30T05:01:39;8.53;;;7.80;;
10299;SDS011;5195;48.562;9.192;2024-01-30T05:04:07;8.85;;;7.97;;
10299;SDS011;5195;48.562;9.192;2024-01-30T05:06:30;8.55;;;7.78;;
10299;SDS011;5195;48.562;9.192;2024-01-30T05:08:56;10.60;;;9.57;;
10299;SDS011;5195;48.562;9.192;2024-01-30T05:11:22;10.57;;;9.65;;
10299;SDS011;5195;48.562;9.192;2024-01-30T05:13:49;9.27;;;8.37;;
10299;SDS011;5195;48.562;9.192;2024-01-30T05:16:14;10.70;;;9.80;;
10299;SDS011;5195;48.562;9.192;2024-01-30T05:18:40;8.38;;;7.68;;
10299;SDS011;5195;48.562;9.192;2024-01-30T05:21:06;11.82;;;8.23;;
10299;SDS011;5195;48.562;9.192;2024-01-30T05:23:32;9.47;;;8.50;;
10299;SDS011;5195;48.562;9.192;2024-01-30T05:25:57;9.05;;;8.30;;
10299;SDS011;5195;48.562;9.192;2024-01-30T05:28:24;10.35;;;9.45;;
10299;SDS011;5195;48.562;9.192;2024-01-30T05:30:50;8.87;;;8.17;;
10299;SDS011;5195;48.562;9.192;2024-01-30T05:33:17;8.47;;;7.77;;
10299;SDS011;5195;48.562;9.192;2024-01-30T05:35:43;10.43;;;9.53;;
10299;SDS011;5195;48.562;9.192;2024-01-30T05:38:08;10.77;;;9.67;;
10299;SDS011;5195;48.562;9.192;2024-01-30T05:40:34;11.33;;;10.20;;
10299;SDS011;5195;48.562;9.192;2024-01-30T05:42:59;10.97;;;10.07;;
10299;SDS011;5195;48.562;9.192;2024-01-30T05:45:26;9.00;;;8.20;;
10299;SDS011;5195;48.562;9.192;2024-01-30T05:47:53;11.25;;;10.25;;
10299;SDS011;5195;48.562;9.192;2024-01-30T05:50:19;9.10;;;8.40;;
10299;SDS011;5195;48.562;9.192;2024-01-30T05:52:49;9.30;;;8.40;;
10299;SDS011;5195;48.562;9.192;2024-01-30T05:55:14;9.93;;;8.87;;
10299;SDS011;5195;48.562;9.192;2024-01-30T05:57:40;10.70;;;9.82;;
10299;SDS011;5195;48.562;9.192;2024-01-30T06:00:06;9.30;;;8.50;;
10299;SDS011;5195;48.562;9.192;2024-01-30T06:02:32;9.20;;;8.37;;
10299;SDS011;5195;48.562;9.192;2024-01-30T06:04:58;10.13;;;9.17;;
10299;SDS011;5195;48.562;9.192;2024-01-30T06:07:23;10.37;;;9.60;;
10299;SDS011;5195;48.562;9.192;2024-01-30T06:09:49;9.18;;;8.38;;
10299;SDS011;5195;48.562;9.192;2024-01-30T06:12:15;10.20;;;9.43;;
10299;SDS011;5195;48.562;9.192;2024-01-30T06:14:40;8.90;;;8.20;;
10299;SDS011;5195;48.562;9.192;2024-01-30T06:17:06;8.40;;;7.70;;
10299;SDS011;5195;48.562;9.192;2024-01-30T06:19:32;8.25;;;7.45;;
10299;SDS011;5195;48.562;9.192;2024-01-30T06:21:58;8.80;;;8.00;;
10299;SDS011;5195;48.562;9.192;2024-01-30T06:24:25;7.90;;;7.20;;
10299;SDS011;5195;48.562;9.192;2024-01-30T06:26:53;8.30;;;7.57;;
10299;SDS011;5195;48.562;9.192;2024-01-30T06:29:20;10.20;;;9.40;;
10299;SDS011;5195;48.562;9.192;2024-01-30T06:31:45;9.13;;;8.23;;
10299;SDS011;5195;48.562;9.192;2024-01-30T06:34:11;10.50;;;9.60;;
10299;SDS011;5195;48.562;9.192;2024-01-30T06:36:36;10.60;;;9.70;;
10299;SDS011;5195;48.562;9.192;2024-01-30T06:39:03;10.40;;;9.60;;
10299;SDS011;5195;48.562;9.192;2024-01-30T06:41:29;9.80;;;9.07;;
10299;SDS011;5195;48.562;9.192;2024-01-30T06:43:54;9.05;;;8.30;;
10299;SDS011;5195;48.562;9.192;2024-01-30T06:46:20;10.50;;;9.50;;
10299;SDS011;5195;48.562;9.192;2024-01-30T06:48:45;9.13;;;8.40;;
10299;SDS011;5195;48.562;9.192;2024-01-30T06:51:11;8.50;;;7.70;;
10299;SDS011;5195;48.562;9.192;2024-01-30T06:53:37;9.52;;;8.82;;
10299;SDS011;5195;48.562;9.192;2024-01-30T06:56:02;10.23;;;9.23;;
10299;SDS011;5195;48.562;9.192;2024-01-30T06:58:28;8.27;;;7.57;;
10299;SDS011;5195;48.562;9.192;2024-01-30T07:00:54;8.57;;;7.77;;
10299;SDS011;5195;48.562;9.192;2024-01-30T07:03:19;8.33;;;7.63;;
10299;SDS011;5195;48.562;9.192;2024-01-30T07:05:45;8.30;;;7.60;;
10299;SDS011;5195;48.562;9.192;2024-01-30T07:08:11;8.17;;;7.47;;
10299;SDS011;5195;48.562;9.192;2024-01-30T07:10:37;10.00;;;9.10;;
10299;SDS011;5195;48.562;9.192;2024-01-30T07:13:04;10.27;;;9.37;;
10299;SDS011;5195;48.562;9.192;2024-01-30T07:15:29;8.77;;;7.97;;
10299;SDS011;5195;48.562;9.192;2024-01-30T07:17:55;10.10;;;9.20;;
10299;SDS011;5195;48.562;9.192;2024-01-30T07:20:21;10.48;;;9.60;;
10299;SDS011;5195;48.562;9.192;2024-01-30T07:22:46;9.60;;;8.85;;
10299;SDS011;5195;48.562;9.192;2024-01-30T07:25:12;8.98;;;8.15;;
10299;SDS011;5195;48.562;9.192;2024-01-30T07:27:37;10.07;;;8.23;;
10299;SDS011;5195;48.562;9.192;2024-01-30T07:30:04;7.80;;;7.10;;
10299;SDS011;5195;48.562;9.192;2024-01-30T07:32:33;7.60;;;7.10;;
10299;SDS011;5195;48.562;9.192;2024-01-30T07:34:59;8.70;;;7.80;;
10299;SDS011;5195;48.562;9.192;2024-01-30T07:37:25;9.27;;;8.57;;
10299;SDS011;5195;48.562;9.192;2024-01-30T07:39:51;9.75;;;8.93;;
10299;SDS011;5195;48.562;9.192;2024-01-30T07:42:16;12.40;;;11.20;;
10299;SDS011;5195;48.562;9.192;2024-01-30T07:44:42;12.97;;;11.87;;
10299;SDS011;5195;48.562;9.192;2024-01-30T07:47:08;11.63;;;10.53;;
10299;SDS011;5195;48.562;9.192;2024-01-30T07:49:33;10.03;;;9.30;;
10299;SDS011;5195;48.562;9.192;2024-01-30T07:51:59;7.85;;;7.28;;
10299;SDS011;5195;48.562;9.192;2024-01-30T07:54:25;9.30;;;8.60;;
10299;SDS011;5195;48.562;9.192;2024-01-30T07:56:51;8.83;;;8.13;;
10299;SDS011;5195;48.562;9.192;2024-01-30T07:59:18;8.30;;;7.40;;
10299;SDS011;5195;48.562;9.192;2024-01-30T08:01:44;7.62;;;7.03;;
10299;SDS011;5195;48.562;9.192;2024-01-30T08:04:09;9.27;;;8.47;;
10299;SDS011;5195;48.562;9.192;2024-01-30T08:06:35;9.27;;;8.43;;
10299;SDS011;5195;48.562;9.192;2024-01-30T08:09:00;8.57;;;7.65;;
10299;SDS011;5195;48.562;9.192;2024-01-30T08:11:26;9.20;;;8.40;;
10299;SDS011;5195;48.562;9.192;2024-01-30T08:13:55;9.00;;;8.40;;
10299;SDS011;5195;48.562;9.192;2024-01-30T08:16:20;8.87;;;8.17;;
10299;SDS011;5195;48.562;9.192;2024-01-30T08:18:47;8.77;;;8.07;;
10299;SDS011;5195;48.562;9.192;2024-01-30T08:21:13;8.40;;;7.40;;
10299;SDS011;5195;48.562;9.192;2024-01-30T08:23:39;8.57;;;7.77;;
10299;SDS011;5195;48.562;9.192;2024-01-30T08:26:04;9.82;;;8.93;;
10299;SDS011;5195;48.562;9.192;2024-01-30T08:28:32;9.63;;;8.83;;
10299;SDS011;5195;48.562;9.192;2024-01-30T08:30:58;9.07;;;8.48;;
10299;SDS011;5195;48.562;9.192;2024-01-30T08:33:24;9.43;;;8.63;;
10299;SDS011;5195;48.562;9.192;2024-01-30T08:35:49;7.80;;;7.20;;
10299;SDS011;5195;48.562;9.192;2024-01-30T08:38:15;8.67;;;8.03;;
10299;SDS011;5195;48.562;9.192;2024-01-30T08:40:41;8.32;;;7.62;;
10299;SDS011;5195;48.562;9.192;2024-01-30T08:43:07;8.33;;;7.63;;
10299;SDS011;5195;48.562;9.192;2024-01-30T08:45:44;6.25;;;5.75;;
10299;SDS011;5195;48.562;9.192;2024-01-30T08:48:10;5.83;;;5.33;;
10299;SDS011;5195;48.562;9.192;2024-01-30T08:50:36;5.30;;;4.90;;
10299;SDS011;5195;48.562;9.192;2024-01-30T08:53:02;5.80;;;5.30;;
10299;SDS011;5195;48.562;9.192;2024-01-30T08:55:27;5.73;;;5.07;;
10299;SDS011;5195;48.562;9.192;2024-01-30T08:57:53;5.78;;;5.28;;
10299;SDS011;5195;48.562;9.192;2024-01-30T09:00:19;6.72;;;6.18;;
10299;SDS011;5195;48.562;9.192;2024-01-30T09:02:46;7.50;;;6.80;;
10299;SDS011;5195;48.562;9.192;2024-01-30T09:05:11;8.17;;;6.90;;
10299;SDS011;5195;48.562;9.192;2024-01-30T09:07:38;6.93;;;6.33;;
10299;SDS011;5195;48.562;9.192;2024-01-30T09:10:04;9.27;;;6.22;;
10299;SDS011;5195;48.562;9.192;2024-01-30T09:12:30;8.27;;;7.57;;
10299;SDS011;5195;48.562;9.192;2024-01-30T09:14:57;9.03;;;8.30;;
10299;SDS011;5195;48.562;9.192;2024-01-30T09:17:23;8.65;;;7.93;;
10299;SDS011;5195;48.562;9.192;2024-01-30T09:19:49;7.90;;;7.30;;
10299;SDS011;5195;48.562;9.192;2024-01-30T09:22:14;8.47;;;7.87;;
10299;SDS011;5195;48.562;9.192;2024-01-30T09:24:41;8.80;;;8.10;;
10299;SDS011;5195;48.562;9.192;2024-01-30T09:27:07;8.68;;;7.85;;
10299;SDS011;5195;48.562;9.192;2024-01-30T09:29:33;8.00;;;7.33;;
10299;SDS011;5195;48.562;9.192;2024-01-30T09:31:59;8.37;;;7.77;;
10299;SDS011;5195;48.562;9.192;2024-01-30T09:34:24;7.87;;;7.27;;
10299;SDS011;5195;48.562;9.192;2024-01-30T09:36:50;8.90;;;8.20;;
10299;SDS011;5195;48.562;9.192;2024-01-30T09:39:17;8.30;;;7.70;;
10299;SDS011;5195;48.562;9.192;2024-01-30T09:42:02;7.73;;;7.23;;
10299;SDS011;5195;48.562;9.192;2024-01-30T09:44:32;8.37;;;7.67;;
10299;SDS011;5195;48.562;9.192;2024-01-30T09:47:07;6.97;;;6.37;;
10299;SDS011;5195;48.562;9.192;2024-01-30T09:49:44;7.70;;;7.10;;
10299;SDS011;5195;48.562;9.192;2024-01-30T09:52:22;7.63;;;6.93;;
10299;SDS011;5195;48.562;9.192;2024-01-30T09:55:01;7.10;;;6.43;;
10299;SDS011;5195;48.562;9.192;2024-01-30T09:57:36;7.77;;;7.07;;
10299;SDS011;5195;48.562;9.192;2024-01-30T10:00:12;8.07;;;7.37;;
10299;SDS011;5195;48.562;9.192;2024-01-30T10:02:49;7.70;;;6.97;;
10299;SDS011;5195;48.562;9.192;2024-01-30T10:05:28;7.93;;;7.20;;
10299;SDS011;5195;48.562;9.192;2024-01-30T10:08:05;9.23;;;8.53;;
10299;SDS011;5195;48.562;9.192;2024-01-30T10:10:42;8.00;;;7.40;;
10299;SDS011;5195;48.562;9.192;2024-01-30T10:13:17;9.83;;;7.80;;
10299;SDS011;5195;48.562;9.192;2024-01-30T10:15:54;9.02;;;8.23;;
10299;SDS011;5195;48.562;9.192;2024-01-30T10:18:33;7.33;;;6.83;;
10299;SDS011;5195;48.562;9.192;2024-01-30T10:21:09;8.45;;;7.70;;
10299;SDS011;5195;48.562;9.192;2024-01-30T10:23:44;8.17;;;7.47;;
10299;SDS011;5195;48.562;9.192;2024-01-30T10:26:21;7.37;;;6.77;;
10299;SDS011;5195;48.562;9.192;2024-01-30T10:28:57;8.53;;;7.67;;
10299;SDS011;5195;48.562;9.192;2024-01-30T10:31:35;8.60;;;7.90;;
10299;SDS011;5195;48.562;9.192;2024-01-30T10:34:10;9.23;;;8.53;;
10299;SDS011;5195;48.562;9.192;2024-01-30T10:36:46;8.87;;;8.00;;
10299;SDS011;5195;48.562;9.192;2024-01-30T10:39:21;8.90;;;8.20;;
10299;SDS011;5195;48.562;9.192;2024-01-30T10:41:58;8.40;;;7.60;;
10299;SDS011;5195;48.562;9.192;2024-01-30T10:44:36;9.80;;;8.90;;
10299;SDS011;5195;48.562;9.192;2024-01-30T10:47:25;9.43;;;7.90;;
10299;SDS011;5195;48.562;9.192;2024-01-30T10:49:57;8.57;;;7.97;;
10299;SDS011;5195;48.562;9.192;2024-01-30T10:52:33;8.13;;;7.43;;
10299;SDS011;5195;48.562;9.192;2024-01-30T10:55:09;8.88;;;8.15;;
10299;SDS011;5195;48.562;9.192;2024-01-30T10:57:47;8.07;;;7.27;;
10299;SDS011;5195;48.562;9.192;2024-01-30T11:00:22;8.27;;;7.47;;
10299;SDS011;5195;48.562;9.192;2024-01-30T11:02:59;9.13;;;8.33;;
10299;SDS011;5195;48.562;9.192;2024-01-30T11:05:35;12.27;;;10.70;;
10299;SDS011;5195;48.562;9.192;2024-01-30T11:08:12;15.70;;;13.67;;
10299;SDS011;5195;48.562;9.192;2024-01-30T11:10:47;26.33;;;17.17;;
10299;SDS011;5195;48.562;9.192;2024-01-30T11:13:32;10.77;;;8.40;;
10299;SDS011;5195;48.562;9.192;2024-01-30T11:16:07;23.17;;;13.17;;
10299;SDS011;5195;48.562;9.192;2024-01-30T11:18:43;26.97;;;16.37;;
10299;SDS011;5195;48.562;9.192;2024-01-30T11:21:20;19.23;;;13.40;;
10299;SDS011;5195;48.562;9.192;2024-01-30T11:23:57;11.00;;;9.87;;
10299;SDS011;5195;48.562;9.192;2024-01-30T11:26:32;9.53;;;8.73;;
10299;SDS011;5195;48.562;9.192;2024-01-30T11:29:09;9.00;;;8.30;;
10299;SDS011;5195;48.562;9.192;2024-01-30T11:31:52;8.73;;;8.03;;
10299;SDS011;5195;48.562;9.192;2024-01-30T11:34:27;8.70;;;8.00;;
10299;SDS011;5195;48.562;9.192;2024-01-30T11:37:06;8.80;;;7.90;;
10299;SDS011;5195;48.562;9.192;2024-01-30T11:39:41;8.57;;;7.87;;
10299;SDS011;5195;48.562;9.192;2024-01-30T11:42:16;8.40;;;7.30;;
10299;SDS011;5195;48.562;9.192;2024-01-30T11:44:52;7.23;;;6.63;;
10299;SDS011;5195;48.562;9.192;2024-01-30T11:47:28;8.50;;;7.80;;
10299;SDS011;5195;48.562;9.192;2024-01-30T11:50:04;8.07;;;7.47;;
10299;SDS011;5195;48.562;9.192;2024-01-30T11:52:39;7.67;;;7.00;;
10299;SDS011;5195;48.562;9.192;2024-01-30T11:55:16;8.40;;;7.80;;
10299;SDS011;5195;48.562;9.192;2024-01-30T11:57:55;7.43;;;6.77;;
10299;SDS011;5195;48.562;9.192;2024-01-30T12:00:31;7.60;;;7.00;;
10299;SDS011;5195;48.562;9.192;2024-01-30T12:03:07;8.80;;;8.00;;
10299;SDS011;5195;48.562;9.192;2024-01-30T12:05:42;8.37;;;7.23;;
10299;SDS011;5195;48.562;9.192;2024-01-30T12:08:18;7.78;;;7.18;;
10299;SDS011;5195;48.562;9.192;2024-01-30T12:10:57;9.93;;;7.70;;
10299;SDS011;5195;48.562;9.192;2024-01-30T12:13:32;8.88;;;8.18;;
10299;SDS011;5195;48.562;9.192;2024-01-30T12:16:09;8.27;;;7.27;;
10299;SDS011;5195;48.562;9.192;2024-01-30T12:18:45;7.50;;;7.00;;
10299;SDS011;5195;48.562;9.192;2024-01-30T12:21:21;8.48;;;7.60;;
10299;SDS011;5195;48.562;9.192;2024-01-30T12:23:57;7.87;;;7.28;;
10299;SDS011;5195;48.562;9.192;2024-01-30T12:26:33;8.03;;;6.93;;
10299;SDS011;5195;48.562;9.192;2024-01-30T12:29:08;8.90;;;6.67;;
10299;SDS011;5195;48.562;9.192;2024-01-30T12:31:45;7.43;;;6.73;;
10299;SDS011;5195;48.562;9.192;2024-01-30T12:34:22;6.57;;;5.87;;
10299;SDS011;5195;48.562;9.192;2024-01-30T12:36:57;8.77;;;6.40;;
10299;SDS011;5195;48.562;9.192;2024-01-30T12:39:33;7.90;;;7.17;;
10299;SDS011;5195;48.562;9.192;2024-01-30T12:42:09;9.18;;;8.32;;
10299;SDS011;5195;48.562;9.192;2024-01-30T12:44:44;9.87;;;7.53;;
10299;SDS011;5195;48.562;9.192;2024-01-30T12:47:22;8.13;;;7.63;;
10299;SDS011;5195;48.562;9.192;2024-01-30T12:49:59;7.10;;;6.50;;
10299;SDS011;5195;48.562;9.192;2024-01-30T12:52:34;7.73;;;6.87;;
10299;SDS011;5195;48.562;9.192;2024-01-30T12:55:10;10.23;;;7.13;;
10299;SDS011;5195;48.562;9.192;2024-01-30T12:57:45;7.80;;;7.20;;
10299;SDS011;5195;48.562;9.192;2024-01-30T13:00:22;7.37;;;6.87;;
10299;SDS011;5195;48.562;9.192;2024-01-30T13:02:58;7.00;;;6.30;;
10299;SDS011;5195;48.562;9.192;2024-01-30T13:05:34;8.15;;;7.35;;
10299;SDS011;5195;48.562;9.192;2024-01-30T13:08:09;7.10;;;6.50;;
10299;SDS011;5195;48.562;9.192;2024-01-30T13:10:45;6.83;;;6.33;;
10299;SDS011;5195;48.562;9.192;2024-01-30T13:13:22;8.07;;;7.00;;
10299;SDS011;5195;48.562;9.192;2024-01-30T13:16:00;7.32;;;6.60;;
10299;SDS011;5195;48.562;9.192;2024-01-30T13:18:36;8.20;;;7.00;;
10299;SDS011;5195;48.562;9.192;2024-01-30T13:21:11;7.97;;;7.30;;
10299;SDS011;5195;48.562;9.192;2024-01-30T13:23:47;7.37;;;6.67;;
10299;SDS011;5195;48.562;9.192;2024-01-30T13:26:23;7.95;;;7.25;;
10299;SDS011;5195;48.562;9.192;2024-01-30T13:28:59;7.00;;;6.40;;
10299;SDS011;5195;48.562;9.192;2024-01-30T13:31:34;6.63;;;6.13;;
10299;SDS011;5195;48.562;9.192;2024-01-30T13:34:10;7.30;;;6.60;;
10299;SDS011;5195;48.562;9.192;2024-01-30T13:36:46;6.80;;;6.00;;
10299;SDS011;5195;48.562;9.192;2024-01-30T13:39:21;6.50;;;5.93;;
10299;SDS011;5195;48.562;9.192;2024-01-30T13:41:58;8.00;;;6.03;;
10299;SDS011;5195;48.562;9.192;2024-01-30T13:44:35;7.57;;;6.40;;
10299;SDS011;5195;48.562;9.192;2024-01-30T13:47:10;6.33;;;5.80;;
10299;SDS011;5195;48.562;9.192;2024-01-30T13:49:45;6.00;;;5.45;;
10299;SDS011;5195;48.562;9.192;2024-01-30T13:52:21;5.93;;;5.40;;
10299;SDS011;5195;48.562;9.192;2024-01-30T13:54:57;6.32;;;5.25;;
10299;SDS011;5195;48.562;9.192;2024-01-30T13:57:33;4.83;;;4.40;;
10299;SDS011;5195;48.562;9.192;2024-01-30T14:00:10;5.00;;;4.60;;
10299;SDS011;5195;48.562;9.192;2024-01-30T14:02:45;5.03;;;4.10;;
10299;SDS011;5195;48.562;9.192;2024-01-30T14:05:21;5.25;;;4.75;;
10299;SDS011;5195;48.562;9.192;2024-01-30T14:07:58;4.63;;;4.33;;
10299;SDS011;5195;48.562;9.192;2024-01-30T14:10:33;4.85;;;4.35;;
10299;SDS011;5195;48.562;9.192;2024-01-30T14:13:10;8.43;;;4.47;;
10299;SDS011;5195;48.562;9.192;2024-01-30T14:15:46;4.87;;;3.77;;
10299;SDS011;5195;48.562;9.192;2024-01-30T14:18:22;4.57;;;4.18;;
10299;SDS011;5195;48.562;9.192;2024-01-30T14:20:57;4.33;;;4.03;;
10299;SDS011;5195;48.562;9.192;2024-01-30T14:23:33;3.63;;;3.43;;
10299;SDS011;5195;48.562;9.192;2024-01-30T14:26:09;5.63;;;3.60;;
10299;SDS011;5195;48.562;9.192;2024-01-30T14:28:45;4.80;;;4.30;;
10299;SDS011;5195;48.562;9.192;2024-01-30T14:31:20;4.33;;;3.93;;
10299;SDS011;5195;48.562;9.192;2024-01-30T14:33:56;3.20;;;3.00;;
10299;SDS011;5195;48.562;9.192;2024-01-30T14:36:32;4.20;;;3.80;;
10299;SDS011;5195;48.562;9.192;2024-01-30T14:39:08;5.50;;;4.00;;
10299;SDS011;5195;48.562;9.192;2024-01-30T14:41:44;4.50;;;4.20;;
10299;SDS011;5195;48.562;9.192;2024-01-30T14:44:20;5.28;;;4.87;;
10299;SDS011;5195;48.562;9.192;2024-01-30T14:46:56;5.77;;;5.27;;
10299;SDS011;5195;48.562;9.192;2024-01-30T14:49:31;4.80;;;4.50;;
10299;SDS011;5195;48.562;9.192;2024-01-30T14:52:07;5.68;;;5.12;;
10299;SDS011;5195;48.562;9.192;2024-01-30T14:54:43;4.60;;;4.13;;
10299;SDS011;5195;48.562;9.192;2024-01-30T14:57:18;5.90;;;5.40;;
10299;SDS011;5195;48.562;9.192;2024-01-30T14:59:54;7.60;;;6.90;;
10299;SDS011;5195;48.562;9.192;2024-01-30T15:02:29;9.53;;;7.23;;
10299;SDS011;5195;48.562;9.192;2024-01-30T15:05:05;9.57;;;8.65;;
10299;SDS011;5195;48.562;9.192;2024-01-30T15:07:41;8.83;;;7.90;;
10299;SDS011;5195;48.562;9.192;2024-01-30T15:10:18;11.93;;;7.63;;
10299;SDS011;5195;48.562;9.192;2024-01-30T15:12:54;16.00;;;10.10;;